Avalon, Mississippi
Current Conditions -  °F | °C
As of 10:53 AM on Friday 24 Oct 2014 (Local Time) from KGWO Reporting Station
Clear Clear  
Wind Chill: 17°   Ceiling: Unl
Heat Index: 17°   Visibility: 10mi
Dew Point: 10°   Wind: 5mph
Humidity: 63%   Direction: 300°WNW
Pressure: 30.16"   Gusts: NA
Location:  33.65°N, 90.09°W
Report Text: KGWO 241553Z AUTO 30004KT 10SM CLR 17/10 A3016 RMK AO2 SLP213 T01720100 TSNO
Loading
Personal Weather Stations






























Interactive Weather Map
Tropical Storm Tracking
New forecast layout! Learn more

10-Day Weather Forecast

Advertisements
Track Severe Weather on mobile